sensor_id;sensor_type;location;lat;lon;timestamp;pressure;altitude;pressure_sealevel;temperature;humidity
24302;BME280;12421;49.732;20.078;2024-01-15T00:07:20;95120.02;;;0.48;70.62
24302;BME280;12421;49.732;20.078;2024-01-15T00:17:24;95110.34;;;0.47;70.32
24302;BME280;12421;49.732;20.078;2024-01-15T00:27:27;95102.94;;;0.45;69.93
24302;BME280;12421;49.732;20.078;2024-01-15T00:37:31;95094.14;;;0.42;70.73
24302;BME280;12421;49.732;20.078;2024-01-15T00:47:35;95074.13;;;0.39;70.54
24302;BME280;12421;49.732;20.078;2024-01-15T00:57:39;95057.73;;;0.41;69.52
24302;BME280;12421;49.732;20.078;2024-01-15T01:07:43;95046.17;;;0.43;69.71
24302;BME280;12421;49.732;20.078;2024-01-15T01:17:46;95035.63;;;0.44;69.77
24302;BME280;12421;49.732;20.078;2024-01-15T01:27:50;95016.83;;;0.41;69.36
24302;BME280;12421;49.732;20.078;2024-01-15T01:37:53;95009.95;;;0.32;69.35
24302;BME280;12421;49.732;20.078;2024-01-15T01:47:56;94994.27;;;0.31;69.84
24302;BME280;12421;49.732;20.078;2024-01-15T01:58:00;94977.70;;;0.27;69.97
24302;BME280;12421;49.732;20.078;2024-01-15T02:08:04;94963.77;;;0.17;70.23
24302;BME280;12421;49.732;20.078;2024-01-15T02:18:08;94948.11;;;0.06;69.46
24302;BME280;12421;49.732;20.078;2024-01-15T02:28:13;94944.52;;;-0.16;69.67
24302;BME280;12421;49.732;20.078;2024-01-15T02:38:17;94932.32;;;-0.33;69.20
24302;BME280;12421;49.732;20.078;2024-01-15T02:48:20;94926.27;;;-0.25;69.44
24302;BME280;12421;49.732;20.078;2024-01-15T02:58:24;94922.65;;;-0.23;70.18
24302;BME280;12421;49.732;20.078;2024-01-15T03:08:27;94913.86;;;-0.22;70.66
24302;BME280;12421;49.732;20.078;2024-01-15T03:18:32;94901.29;;;-0.29;70.74
24302;BME280;12421;49.732;20.078;2024-01-15T03:28:35;94891.48;;;-0.40;70.14
24302;BME280;12421;49.732;20.078;2024-01-15T03:38:42;94876.67;;;-0.47;70.47
24302;BME280;12421;49.732;20.078;2024-01-15T03:48:45;94863.75;;;-0.45;70.11
24302;BME280;12421;49.732;20.078;2024-01-15T03:58:48;94850.98;;;-0.34;69.61
24302;BME280;12421;49.732;20.078;2024-01-15T04:08:51;94838.53;;;-0.26;69.14
24302;BME280;12421;49.732;20.078;2024-01-15T04:18:55;94823.20;;;-0.31;68.76
24302;BME280;12421;49.732;20.078;2024-01-15T04:28:58;94815.16;;;-0.47;68.72
24302;BME280;12421;49.732;20.078;2024-01-15T04:39:02;94802.28;;;-0.58;69.15
24302;BME280;12421;49.732;20.078;2024-01-15T04:49:05;94795.73;;;-0.63;69.35
24302;BME280;12421;49.732;20.078;2024-01-15T04:59:08;94793.34;;;-0.64;69.43
24302;BME280;12421;49.732;20.078;2024-01-15T05:09:12;94794.34;;;-0.59;69.72
24302;BME280;12421;49.732;20.078;2024-01-15T05:19:16;94793.98;;;-0.51;69.60
24302;BME280;12421;49.732;20.078;2024-01-15T05:29:20;94778.31;;;-0.54;69.55
24302;BME280;12421;49.732;20.078;2024-01-15T05:39:23;94762.27;;;-0.48;70.13
24302;BME280;12421;49.732;20.078;2024-01-15T05:49:26;94758.72;;;-0.27;69.81
24302;BME280;12421;49.732;20.078;2024-01-15T05:59:30;94757.62;;;-0.12;69.22
24302;BME280;12421;49.732;20.078;2024-01-15T06:09:35;94761.22;;;-0.09;69.11
24302;BME280;12421;49.732;20.078;2024-01-15T06:19:38;94748.45;;;-0.07;68.70
24302;BME280;12421;49.732;20.078;2024-01-15T06:29:45;94754.84;;;-0.09;68.64
24302;BME280;12421;49.732;20.078;2024-01-15T06:39:53;94756.88;;;-0.02;68.62
24302;BME280;12421;49.732;20.078;2024-01-15T06:49:56;94753.92;;;0.03;69.04
24302;BME280;12421;49.732;20.078;2024-01-15T06:59:59;94768.02;;;0.12;68.83
24302;BME280;12421;49.732;20.078;2024-01-15T07:10:05;94775.88;;;0.22;68.77
24302;BME280;12421;49.732;20.078;2024-01-15T07:20:09;94778.42;;;0.31;68.02
24302;BME280;12421;49.732;20.078;2024-01-15T07:30:13;94782.23;;;0.51;68.15
24302;BME280;12421;49.732;20.078;2024-01-15T07:40:17;94792.77;;;0.74;67.55
24302;BME280;12421;49.732;20.078;2024-01-15T07:50:20;94795.57;;;0.90;67.59
24302;BME280;12421;49.732;20.078;2024-01-15T08:00:23;94811.39;;;0.99;67.84
24302;BME280;12421;49.732;20.078;2024-01-15T08:10:27;94813.63;;;1.18;67.97
24302;BME280;12421;49.732;20.078;2024-01-15T08:20:30;94804.02;;;1.31;67.49
24302;BME280;12421;49.732;20.078;2024-01-15T08:30:34;94804.05;;;1.44;67.31
24302;BME280;12421;49.732;20.078;2024-01-15T08:40:38;94800.48;;;1.70;67.40
24302;BME280;12421;49.732;20.078;2024-01-15T08:50:41;94795.23;;;1.91;66.11
24302;BME280;12421;49.732;20.078;2024-01-15T09:00:44;94799.34;;;2.07;66.01
24302;BME280;12421;49.732;20.078;2024-01-15T09:10:48;94826.11;;;2.38;65.88
24302;BME280;12421;49.732;20.078;2024-01-15T09:20:51;94833.23;;;2.48;64.91
24302;BME280;12421;49.732;20.078;2024-01-15T09:30:55;94827.75;;;2.56;64.91
24302;BME280;12421;49.732;20.078;2024-01-15T09:40:59;94824.35;;;2.76;64.22
24302;BME280;12421;49.732;20.078;2024-01-15T09:51:03;94824.06;;;2.84;63.97
24302;BME280;12421;49.732;20.078;2024-01-15T10:01:08;94818.60;;;2.89;63.56
24302;BME280;12421;49.732;20.078;2024-01-15T10:11:13;94817.25;;;2.88;63.45
24302;BME280;12421;49.732;20.078;2024-01-15T10:21:16;94819.92;;;2.94;63.50
24302;BME280;12421;49.732;20.078;2024-01-15T10:31:19;94814.46;;;3.10;62.66
24302;BME280;12421;49.732;20.078;2024-01-15T10:41:28;94804.83;;;3.36;60.97
24302;BME280;12421;49.732;20.078;2024-01-15T10:51:32;94794.52;;;3.41;60.88
24302;BME280;12421;49.732;20.078;2024-01-15T11:01:36;94799.27;;;3.56;60.68
24302;BME280;12421;49.732;20.078;2024-01-15T11:11:44;94804.91;;;3.60;60.76
24302;BME280;12421;49.732;20.078;2024-01-15T11:21:47;94815.93;;;3.45;60.91
24302;BME280;12421;49.732;20.078;2024-01-15T11:41:59;94814.23;;;2.80;61.69
24302;BME280;12421;49.732;20.078;2024-01-15T11:52:04;94798.54;;;2.87;61.63
24302;BME280;12421;49.732;20.078;2024-01-15T12:02:08;94799.45;;;2.84;60.40
24302;BME280;12421;49.732;20.078;2024-01-15T12:12:20;94809.98;;;2.76;61.00
24302;BME280;12421;49.732;20.078;2024-01-15T12:22:27;94813.56;;;2.79;60.99
24302;BME280;12421;49.732;20.078;2024-01-15T12:32:34;94820.05;;;2.51;60.29
24302;BME280;12421;49.732;20.078;2024-01-15T12:42:39;94823.23;;;2.32;60.72
24302;BME280;12421;49.732;20.078;2024-01-15T12:52:43;94833.69;;;2.14;60.40
24302;BME280;12421;49.732;20.078;2024-01-15T13:02:46;94832.03;;;1.93;60.80
24302;BME280;12421;49.732;20.078;2024-01-15T13:12:51;94819.67;;;1.53;60.63
24302;BME280;12421;49.732;20.078;2024-01-15T13:22:55;94810.17;;;1.19;61.12
24302;BME280;12421;49.732;20.078;2024-01-15T13:32:58;94809.40;;;0.88;61.68
24302;BME280;12421;49.732;20.078;2024-01-15T13:43:07;94809.11;;;0.59;61.65
24302;BME280;12421;49.732;20.078;2024-01-15T13:53:11;94810.60;;;0.42;62.79
24302;BME280;12421;49.732;20.078;2024-01-15T14:03:15;94806.50;;;0.38;62.76
24302;BME280;12421;49.732;20.078;2024-01-15T14:13:18;94806.88;;;0.33;62.54
24302;BME280;12421;49.732;20.078;2024-01-15T14:23:22;94817.27;;;0.23;63.02
24302;BME280;12421;49.732;20.078;2024-01-15T14:33:26;94823.73;;;0.09;63.12
24302;BME280;12421;49.732;20.078;2024-01-15T14:43:30;94821.36;;;-0.02;63.83
24302;BME280;12421;49.732;20.078;2024-01-15T14:53:33;94825.52;;;-0.05;63.69
24302;BME280;12421;49.732;20.078;2024-01-15T15:03:36;94837.10;;;-0.10;63.41
24302;BME280;12421;49.732;20.078;2024-01-15T15:13:40;94844.88;;;-0.21;63.63
24302;BME280;12421;49.732;20.078;2024-01-15T15:23:48;94846.62;;;-0.23;63.88
24302;BME280;12421;49.732;20.078;2024-01-15T15:33:51;94845.60;;;-0.28;63.91
24302;BME280;12421;49.732;20.078;2024-01-15T15:43:55;94856.12;;;-0.30;64.84
24302;BME280;12421;49.732;20.078;2024-01-15T15:53:58;94870.25;;;-0.28;64.77
24302;BME280;12421;49.732;20.078;2024-01-15T16:04:01;94882.64;;;-0.18;65.03
24302;BME280;12421;49.732;20.078;2024-01-15T16:14:07;94877.11;;;-0.17;64.78
24302;BME280;12421;49.732;20.078;2024-01-15T16:24:10;94881.77;;;-0.16;65.46
24302;BME280;12421;49.732;20.078;2024-01-15T16:34:28;94883.34;;;-0.23;65.90
24302;BME280;12421;49.732;20.078;2024-01-15T16:44:31;94881.13;;;-0.33;65.65
24302;BME280;12421;49.732;20.078;2024-01-15T16:54:35;94892.70;;;-0.41;65.73
24302;BME280;12421;49.732;20.078;2024-01-15T17:04:40;94888.57;;;-0.54;65.70
24302;BME280;12421;49.732;20.078;2024-01-15T17:14:45;94893.23;;;-0.64;66.08
24302;BME280;12421;49.732;20.078;2024-01-15T17:24:48;94897.23;;;-0.70;66.68
24302;BME280;12421;49.732;20.078;2024-01-15T17:34:54;94906.67;;;-0.68;67.25
24302;BME280;12421;49.732;20.078;2024-01-15T17:44:58;94911.34;;;-0.80;67.36
24302;BME280;12421;49.732;20.078;2024-01-15T17:55:01;94923.21;;;-0.89;67.56
24302;BME280;12421;49.732;20.078;2024-01-15T18:05:06;94923.04;;;-1.02;68.39
24302;BME280;12421;49.732;20.078;2024-01-15T18:15:12;94915.46;;;-1.11;68.89
24302;BME280;12421;49.732;20.078;2024-01-15T18:25:16;94914.23;;;-1.20;69.45
24302;BME280;12421;49.732;20.078;2024-01-15T18:35:19;94903.06;;;-1.19;69.82
24302;BME280;12421;49.732;20.078;2024-01-15T18:45:24;94910.61;;;-1.34;69.87
24302;BME280;12421;49.732;20.078;2024-01-15T18:55:28;94911.10;;;-1.48;70.86
24302;BME280;12421;49.732;20.078;2024-01-15T19:05:31;94930.55;;;-1.42;71.64
24302;BME280;12421;49.732;20.078;2024-01-15T19:15:34;94942.99;;;-1.19;72.67
24302;BME280;12421;49.732;20.078;2024-01-15T19:25:37;94955.23;;;-0.98;74.02
24302;BME280;12421;49.732;20.078;2024-01-15T19:35:43;94954.73;;;-0.88;74.99
24302;BME280;12421;49.732;20.078;2024-01-15T19:46:03;94948.70;;;-0.83;75.13
24302;BME280;12421;49.732;20.078;2024-01-15T19:56:23;94945.96;;;-0.66;76.41
24302;BME280;12421;49.732;20.078;2024-01-15T20:06:27;94944.92;;;-0.55;76.67
24302;BME280;12421;49.732;20.078;2024-01-15T20:16:30;94951.81;;;-0.52;76.68
24302;BME280;12421;49.732;20.078;2024-01-15T20:26:37;94965.09;;;-0.63;76.85
24302;BME280;12421;49.732;20.078;2024-01-15T20:36:41;94977.48;;;-0.62;76.76
24302;BME280;12421;49.732;20.078;2024-01-15T20:46:44;94981.12;;;-0.61;76.39
24302;BME280;12421;49.732;20.078;2024-01-15T20:56:51;94979.55;;;-0.71;75.38
24302;BME280;12421;49.732;20.078;2024-01-15T21:06:54;94982.27;;;-1.02;75.31
24302;BME280;12421;49.732;20.078;2024-01-15T21:17:03;94981.89;;;-1.15;75.38
24302;BME280;12421;49.732;20.078;2024-01-15T21:27:06;95000.14;;;-1.18;75.55
24302;BME280;12421;49.732;20.078;2024-01-15T21:37:09;95012.71;;;-1.12;76.19
24302;BME280;12421;49.732;20.078;2024-01-15T21:47:15;95028.23;;;-1.06;77.36
24302;BME280;12421;49.732;20.078;2024-01-15T21:57:18;95030.81;;;-1.01;77.71
24302;BME280;12421;49.732;20.078;2024-01-15T22:07:22;95031.86;;;-0.99;78.09
24302;BME280;12421;49.732;20.078;2024-01-15T22:17:25;95038.04;;;-1.06;78.17
24302;BME280;12421;49.732;20.078;2024-01-15T22:27:28;95036.33;;;-1.02;78.38
24302;BME280;12421;49.732;20.078;2024-01-15T22:37:33;95051.49;;;-0.94;78.53
24302;BME280;12421;49.732;20.078;2024-01-15T22:47:36;95061.14;;;-0.94;78.94
24302;BME280;12421;49.732;20.078;2024-01-15T22:57:40;95072.31;;;-1.01;79.66
24302;BME280;12421;49.732;20.078;2024-01-15T23:07:43;95073.50;;;-1.03;80.04
24302;BME280;12421;49.732;20.078;2024-01-15T23:17:46;95075.23;;;-1.07;79.55
24302;BME280;12421;49.732;20.078;2024-01-15T23:27:50;95090.84;;;-1.21;78.77
24302;BME280;12421;49.732;20.078;2024-01-15T23:37:54;95094.57;;;-1.31;78.48
24302;BME280;12421;49.732;20.078;2024-01-15T23:47:57;95096.46;;;-1.33;78.14
24302;BME280;12421;49.732;20.078;2024-01-15T23:58:01;95105.05;;;-1.34;78.00
